createdAt,value
2022-08-20T07:09:59.226Z,101797.81
2022-08-20T07:12:47.390Z,101794.31
2022-08-20T07:15:21.580Z,101797.59
2022-08-20T07:17:58.838Z,101791.44
2022-08-20T07:20:50.203Z,101800.75
2022-08-20T07:26:47.242Z,101802.31
2022-08-20T07:33:17.200Z,101807.47
2022-08-20T07:38:53.361Z,101801.56
2022-08-20T07:41:20.988Z,101806.13
2022-08-20T07:43:55.373Z,101806.59
2022-08-20T07:46:21.863Z,101810.34
2022-08-20T07:48:56.379Z,101814.53
2022-08-20T07:51:22.983Z,101815.13
2022-08-20T07:53:50.717Z,101812.50
2022-08-20T07:56:28.366Z,101820.00
2022-08-20T07:59:00.417Z,101815.41
2022-08-20T08:01:37.402Z,101813.06
2022-08-20T08:04:18.374Z,101820.41
2022-08-20T08:06:51.386Z,101828.88
2022-08-20T08:09:18.323Z,101831.38
2022-08-20T08:11:59.362Z,101829.34
2022-08-20T08:14:29.359Z,101829.72
2022-08-20T08:17:07.374Z,101833.94
2022-08-20T08:19:38.149Z,101835.06
2022-08-20T08:22:23.381Z,101827.63
2022-08-20T08:24:56.684Z,101833.72
2022-08-20T08:27:31.381Z,101827.09
2022-08-20T08:30:03.089Z,101830.53
2022-08-20T08:32:38.378Z,101830.75
2022-08-20T08:45:19.507Z,101842.88
2022-08-20T08:47:53.446Z,101843.66
2022-08-20T08:50:53.419Z,101844.75
2022-08-20T08:53:33.426Z,101849.50
2022-08-20T08:56:07.392Z,101852.69
2022-08-20T08:58:35.234Z,101850.88
2022-08-20T09:01:53.780Z,101853.97
2022-08-20T09:04:08.062Z,101853.66
2022-08-20T09:06:43.366Z,101856.91
2022-08-20T09:09:29.451Z,101851.53
2022-08-20T09:12:47.732Z,101858.28
2022-08-20T09:15:14.994Z,101855.56
2022-08-20T09:17:48.373Z,101846.72
2022-08-20T09:20:14.858Z,101851.59
2022-08-20T09:22:41.283Z,101857.47
2022-08-20T09:25:14.372Z,101857.22
2022-08-20T09:27:41.439Z,101867.63
2022-08-20T09:30:11.110Z,101859.03
2022-08-20T09:32:44.384Z,101852.91
2022-08-20T09:35:11.585Z,101846.94
2022-08-20T09:37:44.363Z,101858.19
2022-08-20T09:40:12.899Z,101853.25
2022-08-20T09:42:41.613Z,101855.84
2022-08-20T09:45:15.361Z,101858.72
2022-08-20T09:47:54.723Z,101853.50
2022-08-20T09:50:29.375Z,101855.34
2022-08-20T09:53:04.383Z,101864.19
2022-08-20T09:55:43.367Z,101861.50
2022-08-20T09:58:21.710Z,101853.25
2022-08-20T10:00:55.382Z,101847.00
2022-08-20T10:03:21.788Z,101848.09
2022-08-20T10:05:55.384Z,101848.44
2022-08-20T10:08:21.779Z,101845.81
2022-08-20T10:10:48.159Z,101852.75
2022-08-20T10:13:21.366Z,101854.84
2022-08-20T10:15:47.733Z,101858.31
2022-08-20T10:18:20.351Z,101862.81
2022-08-20T10:20:46.757Z,101850.59
2022-08-20T10:23:19.400Z,101845.84
2022-08-20T10:25:47.374Z,101844.84
2022-08-20T10:28:13.824Z,101851.22
2022-08-20T10:30:46.364Z,101859.50
2022-08-20T10:33:19.367Z,101857.09
2022-08-20T10:35:45.800Z,101856.31
2022-08-20T10:38:12.169Z,101843.28
2022-08-20T10:40:52.158Z,101849.44
2022-08-20T10:43:19.113Z,101848.66
2022-08-20T10:45:53.390Z,101847.03
2022-08-20T10:48:21.626Z,101843.31
2022-08-20T10:50:49.623Z,101850.00
2022-08-20T10:53:23.369Z,101858.78
2022-08-20T10:55:57.356Z,101849.19
2022-08-20T10:58:37.860Z,101846.53
2022-08-20T11:01:13.399Z,101851.53
2022-08-20T11:04:05.375Z,101853.94
2022-08-20T11:06:31.775Z,101844.16
2022-08-20T11:08:58.250Z,101855.88
2022-08-20T11:11:31.355Z,101849.75
2022-08-20T11:13:57.743Z,101853.03
2022-08-20T11:16:31.381Z,101859.06
2022-08-20T11:19:04.363Z,101857.09
2022-08-20T11:21:37.388Z,101846.16
2022-08-20T11:24:03.878Z,101859.50
2022-08-20T11:26:37.367Z,101842.41
2022-08-20T11:29:04.015Z,101852.19
2022-08-20T11:31:30.924Z,101851.59
2022-08-20T11:34:03.367Z,101858.50
2022-08-20T11:36:29.840Z,101851.00
2022-08-20T11:38:56.216Z,101844.16
2022-08-20T11:41:29.351Z,101847.56
2022-08-20T11:44:20.096Z,101857.63
2022-08-20T11:46:54.380Z,101855.56
2022-08-20T11:49:21.031Z,101850.78
2022-08-20T11:51:55.374Z,101853.75
2022-08-20T11:54:21.771Z,101848.31
2022-08-20T11:56:56.385Z,101850.28
2022-08-20T11:59:29.543Z,101844.16
2022-08-20T12:02:03.701Z,101850.84
2022-08-20T12:04:33.680Z,101847.31
2022-08-20T12:07:19.475Z,101839.06
2022-08-20T12:09:50.904Z,101840.44
2022-08-20T12:12:27.357Z,101842.28
2022-08-20T12:14:55.628Z,101844.44
2022-08-20T12:17:31.399Z,101840.44
2022-08-20T12:20:03.611Z,101838.84
2022-08-20T12:22:30.864Z,101831.09
2022-08-20T12:25:05.355Z,101837.47
2022-08-20T12:27:33.248Z,101835.25
2022-08-20T12:30:11.364Z,101831.47
2022-08-20T12:32:44.374Z,101835.06
2022-08-20T12:35:12.034Z,101837.78
2022-08-20T12:37:38.961Z,101832.44
2022-08-20T12:40:17.394Z,101835.09
2022-08-20T12:42:54.584Z,101833.22
2022-08-20T12:45:31.367Z,101828.13
2022-08-20T12:48:18.378Z,101827.59
2022-08-20T12:50:46.146Z,101830.28
2022-08-20T12:53:21.356Z,101837.75
2022-08-20T12:55:47.799Z,101829.22
2022-08-20T12:58:20.344Z,101830.28
2022-08-20T13:00:50.385Z,101831.34
2022-08-20T13:03:25.369Z,101830.00
2022-08-20T13:05:53.154Z,101832.88
2022-08-20T13:08:26.364Z,101831.75
2022-08-20T13:10:53.227Z,101830.44
2022-08-20T13:13:20.675Z,101831.72
2022-08-20T13:15:55.359Z,101830.13
2022-08-20T13:18:29.420Z,101825.38
2022-08-20T13:20:55.855Z,101831.47
2022-08-20T13:23:22.237Z,101828.59
2022-08-20T13:25:55.463Z,101830.22
2022-08-20T13:28:22.003Z,101828.66
2022-08-20T13:30:55.352Z,101822.75
2022-08-20T13:33:21.829Z,101821.44
2022-08-20T13:35:55.376Z,101823.59
2022-08-20T13:38:22.013Z,101828.91
2022-08-20T13:41:05.403Z,101825.16
2022-08-20T13:43:31.780Z,101825.91
2022-08-20T13:46:05.350Z,101820.56
2022-08-20T13:48:32.354Z,101819.72
2022-08-20T13:50:58.796Z,101823.41
2022-08-20T13:53:32.415Z,101818.34
2022-08-20T13:55:59.119Z,101813.00
2022-08-20T13:58:33.335Z,101812.75
2022-08-20T14:00:59.750Z,101814.34
2022-08-20T14:03:33.391Z,101821.03
2022-08-20T14:06:01.068Z,101819.44
2022-08-20T14:08:27.684Z,101817.53
2022-08-20T14:11:00.352Z,101815.41
2022-08-20T14:13:27.527Z,101815.88
2022-08-20T14:16:01.352Z,101810.59
2022-08-20T14:18:41.370Z,101813.63
2022-08-20T14:21:07.801Z,101806.72
2022-08-20T14:23:40.342Z,101813.59
2022-08-20T14:26:13.605Z,101804.91
2022-08-20T14:28:46.355Z,101810.25
2022-08-20T14:31:12.735Z,101809.19
2022-08-20T14:33:42.615Z,101804.31
2022-08-20T14:36:17.375Z,101805.28
2022-08-20T14:38:45.524Z,101802.25
2022-08-20T14:41:19.365Z,101815.28
2022-08-20T14:43:45.737Z,101812.00
2022-08-20T14:46:12.104Z,101808.28
2022-08-20T14:48:45.367Z,101807.75
2022-08-20T14:51:19.718Z,101809.88
2022-08-20T14:53:53.351Z,101815.66
2022-08-20T14:56:19.854Z,101803.84
2022-08-20T14:58:53.361Z,101803.88
2022-08-20T15:01:27.429Z,101816.00
2022-08-20T15:03:53.894Z,101806.09
2022-08-20T15:06:26.366Z,101815.59
2022-08-20T15:08:54.410Z,101807.44
2022-08-20T15:11:30.296Z,101805.41
2022-08-20T15:13:58.817Z,101807.19
2022-08-20T15:16:25.251Z,101802.47
2022-08-20T15:19:01.392Z,101800.44
2022-08-20T15:21:45.086Z,101802.84
2022-08-20T15:24:18.889Z,101814.03
2022-08-20T15:26:53.360Z,101816.69
2022-08-20T15:29:23.361Z,101810.84
2022-08-20T15:31:57.375Z,101815.66
2022-08-20T15:34:23.756Z,101814.28
2022-08-20T15:36:56.371Z,101803.38
2022-08-20T15:39:22.862Z,101808.72
2022-08-20T15:41:49.223Z,101803.91
2022-08-20T15:44:23.356Z,101810.31
2022-08-20T15:46:49.757Z,101815.38
2022-08-20T15:49:22.360Z,101821.22
2022-08-20T15:51:49.644Z,101818.31
2022-08-20T15:54:31.352Z,101832.66
2022-08-20T15:57:55.356Z,101832.66
2022-08-20T16:00:25.453Z,101835.59
2022-08-20T16:03:15.372Z,101833.47
2022-08-20T16:06:15.129Z,101835.59
2022-08-20T16:09:11.331Z,101833.34
2022-08-20T16:11:56.607Z,101846.22
2022-08-20T16:14:37.357Z,101839.00
2022-08-20T16:17:11.615Z,101842.25
2022-08-20T16:19:58.432Z,101841.19
2022-08-20T16:22:27.963Z,101836.75
2022-08-20T16:25:01.360Z,101842.78
2022-08-20T16:28:03.017Z,101846.59
2022-08-20T16:30:49.374Z,101835.41
2022-08-20T16:33:42.625Z,101844.44
2022-08-20T16:36:21.351Z,101838.34
2022-08-20T16:39:03.164Z,101839.22
2022-08-20T16:41:48.314Z,101843.97
2022-08-20T16:44:36.528Z,101841.00
2022-08-20T16:47:22.334Z,101845.44
2022-08-20T16:50:10.336Z,101846.97
2022-08-20T16:52:36.769Z,101852.03
2022-08-20T16:55:03.673Z,101840.91
2022-08-20T16:57:36.355Z,101842.13
2022-08-20T17:00:26.343Z,101854.28
2022-08-20T17:03:01.349Z,101848.31
2022-08-20T17:05:43.336Z,101843.88
2022-08-20T17:08:26.354Z,101849.56
2022-08-20T17:11:11.760Z,101845.84
2022-08-20T17:13:49.335Z,101854.34
2022-08-20T17:16:15.642Z,101847.59
2022-08-20T17:19:03.331Z,101850.94
2022-08-20T17:21:44.350Z,101846.53
2022-08-20T17:24:28.003Z,101841.75
2022-08-20T17:27:13.338Z,101846.53
2022-08-20T17:29:54.655Z,101851.13
2022-08-20T17:32:32.338Z,101845.72
2022-08-20T17:35:00.800Z,101851.88
2022-08-20T17:37:42.717Z,101852.78
2022-08-20T17:40:28.831Z,101855.22
2022-08-20T17:43:10.380Z,101849.84
2022-08-20T17:45:42.968Z,101857.16
2022-08-20T17:48:29.344Z,101849.59
2022-08-20T17:51:03.359Z,101849.38
2022-08-20T17:53:33.928Z,101850.22
2022-08-20T17:56:29.327Z,101855.97
2022-08-20T17:59:05.814Z,101854.75
2022-08-20T18:01:40.381Z,101850.78
2022-08-20T18:04:07.151Z,101855.16
2022-08-20T18:07:08.347Z,101858.38
2022-08-20T18:09:46.772Z,101858.28
2022-08-20T18:12:33.869Z,101857.63
2022-08-20T18:15:24.995Z,101857.63
2022-08-20T18:18:13.467Z,101862.31
2022-08-20T18:21:11.348Z,101865.44
2022-08-20T18:23:55.663Z,101869.09
2022-08-20T18:26:47.358Z,101870.44
2022-08-20T18:29:28.152Z,101870.56
2022-08-20T18:32:05.339Z,101867.44
2022-08-20T18:34:31.654Z,101873.03
2022-08-20T18:36:58.114Z,101871.88
2022-08-20T18:39:46.373Z,101874.28
2022-08-20T18:42:22.013Z,101875.25
2022-08-20T18:44:58.329Z,101873.94
2022-08-20T18:47:32.645Z,101875.84
2022-08-20T18:50:17.394Z,101876.97
2022-08-20T18:52:49.610Z,101879.31
2022-08-20T18:55:45.338Z,101887.53
2022-08-20T18:58:14.616Z,101877.72
2022-08-20T19:00:58.326Z,101882.28
2022-08-20T19:03:33.691Z,101880.13
2022-08-20T19:06:33.352Z,101875.59
2022-08-20T19:09:16.336Z,101880.75
2022-08-20T19:12:24.357Z,101886.28
2022-08-20T19:15:14.353Z,101885.75
2022-08-20T19:18:22.362Z,101875.72
2022-08-20T19:21:05.341Z,101877.41
2022-08-20T19:23:48.289Z,101878.72
2022-08-20T19:26:26.217Z,101883.22
2022-08-20T19:29:02.670Z,101882.91
2022-08-20T19:31:38.345Z,101886.59
2022-08-20T19:34:19.725Z,101884.78
2022-08-20T19:36:58.396Z,101884.22
2022-08-20T19:39:33.403Z,101882.25
2022-08-20T19:42:05.186Z,101890.41
2022-08-20T19:44:45.933Z,101878.91
2022-08-20T19:47:20.919Z,101890.69
2022-08-20T19:50:03.312Z,101888.09
2022-08-20T19:52:35.747Z,101889.94
2022-08-20T19:55:08.335Z,101888.34
2022-08-20T19:57:34.872Z,101879.69
2022-08-20T20:00:17.343Z,101886.56
2022-08-20T20:02:43.821Z,101882.53
2022-08-20T20:05:11.212Z,101883.31
2022-08-20T20:07:53.307Z,101881.72
2022-08-20T20:10:32.533Z,101883.75
2022-08-20T20:13:17.335Z,101877.09
2022-08-20T20:15:44.188Z,101882.75
2022-08-20T20:18:25.323Z,101875.69
2022-08-20T20:21:04.293Z,101882.53
2022-08-20T20:23:45.628Z,101883.56
2022-08-20T20:26:27.358Z,101885.34
2022-08-20T20:29:09.338Z,101881.53
2022-08-20T20:31:48.455Z,101880.47
2022-08-20T20:34:23.343Z,101877.41
2022-08-20T20:37:05.380Z,101878.00
2022-08-20T20:39:43.353Z,101873.34
2022-08-20T20:42:19.341Z,101878.19
2022-08-20T20:44:46.121Z,101878.78
2022-08-20T20:47:39.346Z,101884.00
2022-08-20T20:50:10.520Z,101869.84
2022-08-20T20:52:56.449Z,101868.81
2022-08-20T20:55:28.004Z,101869.00
2022-08-20T20:58:02.695Z,101873.38
2022-08-20T21:00:32.535Z,101871.34
2022-08-20T21:03:05.356Z,101873.56
2022-08-20T21:05:32.267Z,101872.53
2022-08-20T21:08:09.357Z,101873.69
2022-08-20T21:10:40.722Z,101869.22
2022-08-20T21:13:08.553Z,101865.38
2022-08-20T21:15:45.325Z,101873.38
2022-08-20T21:18:20.986Z,101875.38
2022-08-20T21:20:58.296Z,101875.16
2022-08-20T21:23:40.270Z,101874.13
2022-08-20T21:26:08.403Z,101883.09
2022-08-20T21:28:41.337Z,101872.19
2022-08-20T21:31:15.313Z,101881.59
2022-08-20T21:33:41.745Z,101877.75
2022-08-20T21:36:15.356Z,101873.88
2022-08-20T21:38:41.768Z,101872.19
2022-08-20T21:41:15.311Z,101882.44
2022-08-20T21:43:42.069Z,101879.34
2022-08-20T21:46:10.984Z,101882.47
2022-08-20T21:48:48.127Z,101887.81
2022-08-20T21:51:14.665Z,101879.75
2022-08-20T21:53:47.287Z,101878.16
2022-08-20T21:56:13.669Z,101885.41
2022-08-20T21:58:47.311Z,101883.75
2022-08-20T22:01:14.903Z,101883.91
2022-08-20T22:03:42.007Z,101885.31
2022-08-20T22:06:19.295Z,101879.91
2022-08-20T22:08:45.710Z,101871.25
2022-08-20T22:11:25.312Z,101881.53
2022-08-20T22:13:52.110Z,101873.03
2022-08-20T22:16:27.351Z,101871.81
2022-08-20T22:19:07.305Z,101866.28
2022-08-20T22:21:44.611Z,101863.41
2022-08-20T22:24:19.330Z,101858.56
2022-08-20T22:26:45.727Z,101860.50
2022-08-20T22:29:12.735Z,101861.53
2022-08-20T22:31:49.430Z,101858.44
2022-08-20T22:34:19.780Z,101862.00
2022-08-20T22:36:53.304Z,101860.72
2022-08-20T22:39:19.714Z,101854.25
2022-08-20T22:41:52.324Z,101850.53
2022-08-20T22:44:19.581Z,101848.13
2022-08-20T22:46:48.825Z,101852.72
2022-08-20T22:49:29.291Z,101850.47
2022-08-20T22:52:03.298Z,101851.81
2022-08-20T22:54:29.999Z,101849.56
2022-08-20T22:57:03.298Z,101851.34
2022-08-20T22:59:30.519Z,101847.50
2022-08-20T23:01:57.624Z,101846.22
2022-08-20T23:04:35.284Z,101845.59
2022-08-20T23:07:10.311Z,101849.72
2022-08-20T23:09:40.129Z,101840.91
2022-08-20T23:12:07.546Z,101848.94
2022-08-20T23:14:42.300Z,101845.34
2022-08-20T23:17:14.884Z,101842.91
2022-08-20T23:19:56.361Z,101835.88
2022-08-20T23:22:29.776Z,101832.44
2022-08-20T23:25:02.266Z,101837.06
2022-08-20T23:27:29.006Z,101837.75
2022-08-20T23:30:02.302Z,101841.72
2022-08-20T23:32:28.787Z,101844.50
2022-08-20T23:34:55.212Z,101844.50
2022-08-20T23:37:28.358Z,101838.03
2022-08-20T23:39:54.787Z,101837.38
2022-08-20T23:42:28.317Z,101830.72
2022-08-20T23:44:54.728Z,101831.25
2022-08-20T23:47:28.359Z,101834.22
2022-08-20T23:50:01.277Z,101827.91
2022-08-20T23:52:27.889Z,101831.50
2022-08-20T23:54:54.276Z,101827.44
2022-08-20T23:57:27.275Z,101820.97
2022-08-20T23:59:53.687Z,101822.78
